sensor_id;sensor_type;location;lat;lon;timestamp;P1;durP1;ratioP1;P2;durP2;ratioP2
26588;SDS011;14235;48.532;8.722;2023-04-07T00:01:19;7.43;;;6.30;;
26588;SDS011;14235;48.532;8.722;2023-04-07T00:03:45;7.50;;;6.80;;
26588;SDS011;14235;48.532;8.722;2023-04-07T00:06:11;7.43;;;6.57;;
26588;SDS011;14235;48.532;8.722;2023-04-07T00:08:37;7.35;;;6.65;;
26588;SDS011;14235;48.532;8.722;2023-04-07T00:11:03;7.35;;;6.53;;
26588;SDS011;14235;48.532;8.722;2023-04-07T00:13:29;7.60;;;6.32;;
26588;SDS011;14235;48.532;8.722;2023-04-07T00:15:55;6.82;;;6.22;;
26588;SDS011;14235;48.532;8.722;2023-04-07T00:18:20;6.43;;;5.82;;
26588;SDS011;14235;48.532;8.722;2023-04-07T00:20:46;6.72;;;6.13;;
26588;SDS011;14235;48.532;8.722;2023-04-07T00:23:11;7.05;;;6.35;;
26588;SDS011;14235;48.532;8.722;2023-04-07T00:25:37;8.45;;;6.43;;
26588;SDS011;14235;48.532;8.722;2023-04-07T00:28:03;7.50;;;5.70;;
26588;SDS011;14235;48.532;8.722;2023-04-07T00:30:28;6.80;;;6.13;;
26588;SDS011;14235;48.532;8.722;2023-04-07T00:32:54;6.97;;;6.30;;
26588;SDS011;14235;48.532;8.722;2023-04-07T00:35:20;7.82;;;6.40;;
26588;SDS011;14235;48.532;8.722;2023-04-07T00:37:47;6.78;;;6.18;;
26588;SDS011;14235;48.532;8.722;2023-04-07T00:40:13;7.07;;;6.47;;
26588;SDS011;14235;48.532;8.722;2023-04-07T00:42:38;7.65;;;6.95;;
26588;SDS011;14235;48.532;8.722;2023-04-07T00:45:04;9.90;;;7.17;;
26588;SDS011;14235;48.532;8.722;2023-04-07T00:47:30;7.53;;;6.83;;
26588;SDS011;14235;48.532;8.722;2023-04-07T00:49:56;7.57;;;6.80;;
26588;SDS011;14235;48.532;8.722;2023-04-07T00:52:21;7.85;;;7.10;;
26588;SDS011;14235;48.532;8.722;2023-04-07T00:54:53;7.78;;;6.97;;
26588;SDS011;14235;48.532;8.722;2023-04-07T00:57:20;8.18;;;7.38;;
26588;SDS011;14235;48.532;8.722;2023-04-07T00:59:47;8.98;;;7.75;;
26588;SDS011;14235;48.532;8.722;2023-04-07T01:02:17;7.13;;;6.43;;
26588;SDS011;14235;48.532;8.722;2023-04-07T01:04:55;8.25;;;7.03;;
26588;SDS011;14235;48.532;8.722;2023-04-07T01:10:26;7.32;;;6.53;;
26588;SDS011;14235;48.532;8.722;2023-04-07T01:13:07;7.53;;;6.68;;
26588;SDS011;14235;48.532;8.722;2023-04-07T01:15:37;7.75;;;6.95;;
26588;SDS011;14235;48.532;8.722;2023-04-07T01:18:14;7.47;;;6.78;;
26588;SDS011;14235;48.532;8.722;2023-04-07T01:20:46;7.88;;;7.10;;
26588;SDS011;14235;48.532;8.722;2023-04-07T01:23:30;7.60;;;6.80;;
26588;SDS011;14235;48.532;8.722;2023-04-07T01:26:26;7.80;;;7.00;;
26588;SDS011;14235;48.532;8.722;2023-04-07T01:31:31;7.72;;;6.68;;
26588;SDS011;14235;48.532;8.722;2023-04-07T01:33:58;7.85;;;7.05;;
26588;SDS011;14235;48.532;8.722;2023-04-07T01:36:27;7.55;;;6.75;;
26588;SDS011;14235;48.532;8.722;2023-04-07T01:38:55;7.55;;;6.75;;
26588;SDS011;14235;48.532;8.722;2023-04-07T01:41:23;7.50;;;6.68;;
26588;SDS011;14235;48.532;8.722;2023-04-07T01:43:49;7.15;;;6.47;;
26588;SDS011;14235;48.532;8.722;2023-04-07T01:46:16;7.60;;;6.75;;
26588;SDS011;14235;48.532;8.722;2023-04-07T01:48:41;7.90;;;7.10;;
26588;SDS011;14235;48.532;8.722;2023-04-07T01:51:07;8.15;;;6.80;;
26588;SDS011;14235;48.532;8.722;2023-04-07T01:53:35;7.75;;;7.05;;
26588;SDS011;14235;48.532;8.722;2023-04-07T01:56:03;9.00;;;7.30;;
26588;SDS011;14235;48.532;8.722;2023-04-07T01:58:29;7.68;;;6.70;;
26588;SDS011;14235;48.532;8.722;2023-04-07T02:00:55;7.47;;;6.78;;
26588;SDS011;14235;48.532;8.722;2023-04-07T02:03:30;7.78;;;6.97;;
26588;SDS011;14235;48.532;8.722;2023-04-07T02:06:20;7.05;;;6.35;;
26588;SDS011;14235;48.532;8.722;2023-04-07T02:08:50;7.63;;;6.78;;
26588;SDS011;14235;48.532;8.722;2023-04-07T02:11:20;9.40;;;7.40;;
26588;SDS011;14235;48.532;8.722;2023-04-07T02:13:47;8.05;;;6.88;;
26588;SDS011;14235;48.532;8.722;2023-04-07T02:16:16;8.15;;;6.97;;
26588;SDS011;14235;48.532;8.722;2023-04-07T02:18:42;7.75;;;7.03;;
26588;SDS011;14235;48.532;8.722;2023-04-07T02:21:10;20.60;;;6.95;;
26588;SDS011;14235;48.532;8.722;2023-04-07T02:23:39;7.53;;;6.82;;
26588;SDS011;14235;48.532;8.722;2023-04-07T02:26:04;7.57;;;6.80;;
26588;SDS011;14235;48.532;8.722;2023-04-07T02:28:30;7.85;;;7.07;;
26588;SDS011;14235;48.532;8.722;2023-04-07T02:30:56;7.63;;;6.47;;
26588;SDS011;14235;48.532;8.722;2023-04-07T02:33:21;8.02;;;7.20;;
26588;SDS011;14235;48.532;8.722;2023-04-07T02:35:47;7.68;;;6.97;;
26588;SDS011;14235;48.532;8.722;2023-04-07T02:38:12;8.25;;;7.45;;
26588;SDS011;14235;48.532;8.722;2023-04-07T02:40:38;8.30;;;7.05;;
26588;SDS011;14235;48.532;8.722;2023-04-07T02:43:03;7.57;;;6.85;;
26588;SDS011;14235;48.532;8.722;2023-04-07T02:45:29;9.05;;;7.35;;
26588;SDS011;14235;48.532;8.722;2023-04-07T02:47:55;8.18;;;7.38;;
26588;SDS011;14235;48.532;8.722;2023-04-07T02:50:20;7.78;;;6.97;;
26588;SDS011;14235;48.532;8.722;2023-04-07T02:52:46;7.47;;;6.80;;
26588;SDS011;14235;48.532;8.722;2023-04-07T02:55:12;8.65;;;7.75;;
26588;SDS011;14235;48.532;8.722;2023-04-07T02:57:37;9.98;;;8.93;;
26588;SDS011;14235;48.532;8.722;2023-04-07T03:00:03;11.02;;;8.07;;
26588;SDS011;14235;48.532;8.722;2023-04-07T03:02:29;9.07;;;8.18;;
26588;SDS011;14235;48.532;8.722;2023-04-07T03:04:54;8.70;;;7.80;;
26588;SDS011;14235;48.532;8.722;2023-04-07T03:07:20;7.82;;;7.03;;
26588;SDS011;14235;48.532;8.722;2023-04-07T03:09:46;8.43;;;7.45;;
26588;SDS011;14235;48.532;8.722;2023-04-07T03:12:11;8.48;;;7.63;;
26588;SDS011;14235;48.532;8.722;2023-04-07T03:14:37;7.57;;;6.88;;
26588;SDS011;14235;48.532;8.722;2023-04-07T03:17:03;9.10;;;7.35;;
26588;SDS011;14235;48.532;8.722;2023-04-07T03:19:29;7.72;;;6.93;;
26588;SDS011;14235;48.532;8.722;2023-04-07T03:21:54;7.63;;;6.93;;
26588;SDS011;14235;48.532;8.722;2023-04-07T03:24:20;8.63;;;7.82;;
26588;SDS011;14235;48.532;8.722;2023-04-07T03:26:45;7.85;;;7.05;;
26588;SDS011;14235;48.532;8.722;2023-04-07T03:29:11;8.10;;;7.30;;
26588;SDS011;14235;48.532;8.722;2023-04-07T03:31:37;8.27;;;7.07;;
26588;SDS011;14235;48.532;8.722;2023-04-07T03:34:03;8.10;;;7.10;;
26588;SDS011;14235;48.532;8.722;2023-04-07T03:36:29;9.75;;;7.40;;
26588;SDS011;14235;48.532;8.722;2023-04-07T03:38:56;7.68;;;6.90;;
26588;SDS011;14235;48.532;8.722;2023-04-07T03:41:21;8.05;;;7.25;;
26588;SDS011;14235;48.532;8.722;2023-04-07T03:43:47;8.60;;;7.67;;
26588;SDS011;14235;48.532;8.722;2023-04-07T03:46:13;7.75;;;6.78;;
26588;SDS011;14235;48.532;8.722;2023-04-07T03:48:38;9.35;;;8.25;;
26588;SDS011;14235;48.532;8.722;2023-04-07T03:51:04;8.65;;;7.13;;
26588;SDS011;14235;48.532;8.722;2023-04-07T03:53:30;10.17;;;8.07;;
26588;SDS011;14235;48.532;8.722;2023-04-07T03:55:56;8.23;;;7.43;;
26588;SDS011;14235;48.532;8.722;2023-04-07T03:58:22;7.87;;;7.07;;
26588;SDS011;14235;48.532;8.722;2023-04-07T04:00:47;8.60;;;7.32;;
26588;SDS011;14235;48.532;8.722;2023-04-07T04:03:13;8.80;;;7.07;;
26588;SDS011;14235;48.532;8.722;2023-04-07T04:05:38;7.60;;;6.80;;
26588;SDS011;14235;48.532;8.722;2023-04-07T04:08:05;7.82;;;6.93;;
26588;SDS011;14235;48.532;8.722;2023-04-07T04:10:30;7.43;;;6.67;;
26588;SDS011;14235;48.532;8.722;2023-04-07T04:12:56;8.18;;;7.00;;
26588;SDS011;14235;48.532;8.722;2023-04-07T04:15:24;8.60;;;7.20;;
26588;SDS011;14235;48.532;8.722;2023-04-07T04:17:50;8.15;;;7.10;;
26588;SDS011;14235;48.532;8.722;2023-04-07T04:20:16;8.02;;;7.05;;
26588;SDS011;14235;48.532;8.722;2023-04-07T04:22:41;7.72;;;6.80;;
26588;SDS011;14235;48.532;8.722;2023-04-07T04:25:07;8.83;;;7.67;;
26588;SDS011;14235;48.532;8.722;2023-04-07T04:27:33;8.00;;;7.20;;
26588;SDS011;14235;48.532;8.722;2023-04-07T04:29:58;7.80;;;7.00;;
26588;SDS011;14235;48.532;8.722;2023-04-07T04:32:24;8.03;;;7.00;;
26588;SDS011;14235;48.532;8.722;2023-04-07T04:34:50;6.97;;;6.27;;
26588;SDS011;14235;48.532;8.722;2023-04-07T04:37:16;7.97;;;6.53;;
26588;SDS011;14235;48.532;8.722;2023-04-07T04:39:41;7.93;;;7.10;;
26588;SDS011;14235;48.532;8.722;2023-04-07T04:42:07;8.23;;;7.23;;
26588;SDS011;14235;48.532;8.722;2023-04-07T04:44:32;7.32;;;6.57;;
26588;SDS011;14235;48.532;8.722;2023-04-07T04:46:58;8.10;;;7.00;;
26588;SDS011;14235;48.532;8.722;2023-04-07T04:49:23;8.10;;;6.53;;
26588;SDS011;14235;48.532;8.722;2023-04-07T04:51:49;7.37;;;6.67;;
26588;SDS011;14235;48.532;8.722;2023-04-07T04:54:15;7.70;;;6.90;;
26588;SDS011;14235;48.532;8.722;2023-04-07T04:56:40;7.37;;;6.63;;
26588;SDS011;14235;48.532;8.722;2023-04-07T04:59:06;8.33;;;6.60;;
26588;SDS011;14235;48.532;8.722;2023-04-07T05:01:32;8.17;;;7.37;;
26588;SDS011;14235;48.532;8.722;2023-04-07T05:03:58;8.03;;;7.03;;
26588;SDS011;14235;48.532;8.722;2023-04-07T05:06:23;7.67;;;6.97;;
26588;SDS011;14235;48.532;8.722;2023-04-07T05:08:49;8.30;;;7.40;;
26588;SDS011;14235;48.532;8.722;2023-04-07T05:11:15;8.03;;;7.23;;
26588;SDS011;14235;48.532;8.722;2023-04-07T05:13:40;8.33;;;7.50;;
26588;SDS011;14235;48.532;8.722;2023-04-07T05:16:06;8.80;;;7.33;;
26588;SDS011;14235;48.532;8.722;2023-04-07T05:18:31;8.07;;;7.00;;
26588;SDS011;14235;48.532;8.722;2023-04-07T05:20:57;8.93;;;8.03;;
26588;SDS011;14235;48.532;8.722;2023-04-07T05:23:23;9.60;;;8.20;;
26588;SDS011;14235;48.532;8.722;2023-04-07T05:25:48;9.07;;;7.80;;
26588;SDS011;14235;48.532;8.722;2023-04-07T05:28:14;9.65;;;8.02;;
26588;SDS011;14235;48.532;8.722;2023-04-07T05:30:40;8.07;;;7.27;;
26588;SDS011;14235;48.532;8.722;2023-04-07T05:33:05;7.97;;;7.18;;
26588;SDS011;14235;48.532;8.722;2023-04-07T05:35:31;7.87;;;7.07;;
26588;SDS011;14235;48.532;8.722;2023-04-07T05:37:56;9.07;;;7.30;;
26588;SDS011;14235;48.532;8.722;2023-04-07T05:40:22;8.17;;;6.73;;
26588;SDS011;14235;48.532;8.722;2023-04-07T05:42:48;7.90;;;6.73;;
26588;SDS011;14235;48.532;8.722;2023-04-07T05:45:14;7.53;;;6.80;;
26588;SDS011;14235;48.532;8.722;2023-04-07T05:47:40;9.87;;;6.57;;
26588;SDS011;14235;48.532;8.722;2023-04-07T05:50:05;7.27;;;6.57;;
26588;SDS011;14235;48.532;8.722;2023-04-07T05:52:31;7.60;;;6.80;;
26588;SDS011;14235;48.532;8.722;2023-04-07T05:54:57;8.17;;;7.23;;
26588;SDS011;14235;48.532;8.722;2023-04-07T05:57:23;7.87;;;7.13;;
26588;SDS011;14235;48.532;8.722;2023-04-07T05:59:48;8.07;;;6.50;;
26588;SDS011;14235;48.532;8.722;2023-04-07T06:02:14;7.33;;;6.50;;
26588;SDS011;14235;48.532;8.722;2023-04-07T06:04:40;8.33;;;6.60;;
26588;SDS011;14235;48.532;8.722;2023-04-07T06:07:05;7.25;;;6.55;;
26588;SDS011;14235;48.532;8.722;2023-04-07T06:09:31;8.77;;;6.87;;
26588;SDS011;14235;48.532;8.722;2023-04-07T06:11:57;7.03;;;6.33;;
26588;SDS011;14235;48.532;8.722;2023-04-07T06:14:22;6.93;;;6.20;;
26588;SDS011;14235;48.532;8.722;2023-04-07T06:16:48;7.30;;;6.33;;
26588;SDS011;14235;48.532;8.722;2023-04-07T06:19:14;7.63;;;6.93;;
26588;SDS011;14235;48.532;8.722;2023-04-07T06:21:40;7.87;;;7.13;;
26588;SDS011;14235;48.532;8.722;2023-04-07T06:24:05;8.27;;;7.10;;
26588;SDS011;14235;48.532;8.722;2023-04-07T06:26:31;8.63;;;7.73;;
26588;SDS011;14235;48.532;8.722;2023-04-07T06:28:57;8.60;;;7.70;;
26588;SDS011;14235;48.532;8.722;2023-04-07T06:31:23;10.52;;;8.15;;
26588;SDS011;14235;48.532;8.722;2023-04-07T06:33:50;9.73;;;8.07;;
26588;SDS011;14235;48.532;8.722;2023-04-07T06:36:15;9.02;;;8.10;;
26588;SDS011;14235;48.532;8.722;2023-04-07T06:38:41;10.65;;;7.53;;
26588;SDS011;14235;48.532;8.722;2023-04-07T06:41:07;7.70;;;6.90;;
26588;SDS011;14235;48.532;8.722;2023-04-07T06:43:35;10.60;;;7.37;;
26588;SDS011;14235;48.532;8.722;2023-04-07T06:46:01;7.78;;;6.80;;
26588;SDS011;14235;48.532;8.722;2023-04-07T06:48:27;8.10;;;7.30;;
26588;SDS011;14235;48.532;8.722;2023-04-07T06:50:52;7.53;;;6.50;;
26588;SDS011;14235;48.532;8.722;2023-04-07T06:53:18;7.25;;;6.57;;
26588;SDS011;14235;48.532;8.722;2023-04-07T06:55:43;6.88;;;6.28;;
26588;SDS011;14235;48.532;8.722;2023-04-07T06:58:09;7.75;;;6.95;;
26588;SDS011;14235;48.532;8.722;2023-04-07T07:00:35;7.72;;;6.70;;
26588;SDS011;14235;48.532;8.722;2023-04-07T07:03:01;6.97;;;6.28;;
26588;SDS011;14235;48.532;8.722;2023-04-07T07:05:26;7.30;;;6.60;;
26588;SDS011;14235;48.532;8.722;2023-04-07T07:07:52;8.48;;;6.55;;
26588;SDS011;14235;48.532;8.722;2023-04-07T07:10:18;6.72;;;6.13;;
26588;SDS011;14235;48.532;8.722;2023-04-07T07:12:50;7.45;;;6.72;;
26588;SDS011;14235;48.532;8.722;2023-04-07T07:15:16;7.95;;;7.15;;
26588;SDS011;14235;48.532;8.722;2023-04-07T07:17:42;9.63;;;8.00;;
26588;SDS011;14235;48.532;8.722;2023-04-07T07:20:08;9.00;;;7.97;;
26588;SDS011;14235;48.532;8.722;2023-04-07T07:22:34;7.63;;;6.63;;
26588;SDS011;14235;48.532;8.722;2023-04-07T07:24:59;7.55;;;6.85;;
26588;SDS011;14235;48.532;8.722;2023-04-07T07:27:25;7.63;;;6.93;;
26588;SDS011;14235;48.532;8.722;2023-04-07T07:29:51;7.70;;;6.95;;
26588;SDS011;14235;48.532;8.722;2023-04-07T07:32:16;7.63;;;6.93;;
26588;SDS011;14235;48.532;8.722;2023-04-07T07:34:42;7.53;;;6.70;;
26588;SDS011;14235;48.532;8.722;2023-04-07T07:37:07;7.32;;;6.32;;
26588;SDS011;14235;48.532;8.722;2023-04-07T07:39:33;6.57;;;5.97;;
26588;SDS011;14235;48.532;8.722;2023-04-07T07:41:59;7.32;;;6.43;;
26588;SDS011;14235;48.532;8.722;2023-04-07T07:44:25;6.60;;;6.00;;
26588;SDS011;14235;48.532;8.722;2023-04-07T07:46:51;6.43;;;5.82;;
26588;SDS011;14235;48.532;8.722;2023-04-07T07:49:16;7.88;;;5.90;;
26588;SDS011;14235;48.532;8.722;2023-04-07T07:51:42;6.38;;;5.05;;
26588;SDS011;14235;48.532;8.722;2023-04-07T07:54:08;5.88;;;5.32;;
26588;SDS011;14235;48.532;8.722;2023-04-07T07:56:33;5.38;;;4.88;;
26588;SDS011;14235;48.532;8.722;2023-04-07T07:58:59;5.10;;;4.60;;
26588;SDS011;14235;48.532;8.722;2023-04-07T08:01:25;4.47;;;4.10;;
26588;SDS011;14235;48.532;8.722;2023-04-07T08:03:51;4.90;;;4.40;;
26588;SDS011;14235;48.532;8.722;2023-04-07T08:06:16;4.60;;;4.20;;
26588;SDS011;14235;48.532;8.722;2023-04-07T08:08:42;4.50;;;4.20;;
26588;SDS011;14235;48.532;8.722;2023-04-07T08:11:08;5.00;;;4.50;;
26588;SDS011;14235;48.532;8.722;2023-04-07T08:13:33;4.47;;;4.07;;
26588;SDS011;14235;48.532;8.722;2023-04-07T08:15:59;4.32;;;3.75;;
26588;SDS011;14235;48.532;8.722;2023-04-07T08:18:25;4.32;;;4.00;;
26588;SDS011;14235;48.532;8.722;2023-04-07T08:20:50;4.70;;;4.00;;
26588;SDS011;14235;48.532;8.722;2023-04-07T08:23:16;4.80;;;4.40;;
26588;SDS011;14235;48.532;8.722;2023-04-07T08:25:42;4.45;;;4.07;;
26588;SDS011;14235;48.532;8.722;2023-04-07T08:28:07;5.13;;;4.20;;
26588;SDS011;14235;48.532;8.722;2023-04-07T08:30:33;4.18;;;3.78;;
26588;SDS011;14235;48.532;8.722;2023-04-07T08:32:59;3.63;;;3.33;;
26588;SDS011;14235;48.532;8.722;2023-04-07T08:35:24;3.60;;;3.38;;
26588;SDS011;14235;48.532;8.722;2023-04-07T08:37:50;4.10;;;3.78;;
26588;SDS011;14235;48.532;8.722;2023-04-07T08:40:16;4.20;;;3.75;;
26588;SDS011;14235;48.532;8.722;2023-04-07T08:42:42;5.38;;;3.80;;
26588;SDS011;14235;48.532;8.722;2023-04-07T08:45:11;4.50;;;3.47;;
26588;SDS011;14235;48.532;8.722;2023-04-07T08:47:39;3.55;;;3.20;;
26588;SDS011;14235;48.532;8.722;2023-04-07T08:52:33;3.13;;;2.83;;
26588;SDS011;14235;48.532;8.722;2023-04-07T08:55:02;4.43;;;3.25;;
26588;SDS011;14235;48.532;8.722;2023-04-07T08:57:30;4.20;;;3.00;;
26588;SDS011;14235;48.532;8.722;2023-04-07T08:59:57;3.67;;;2.80;;
26588;SDS011;14235;48.532;8.722;2023-04-07T09:02:28;7.07;;;3.38;;
26588;SDS011;14235;48.532;8.722;2023-04-07T09:04:54;3.40;;;2.97;;
26588;SDS011;14235;48.532;8.722;2023-04-07T09:07:21;6.95;;;2.80;;
26588;SDS011;14235;48.532;8.722;2023-04-07T09:09:46;5.78;;;2.80;;
26588;SDS011;14235;48.532;8.722;2023-04-07T09:12:12;3.53;;;2.30;;
26588;SDS011;14235;48.532;8.722;2023-04-07T09:14:37;2.65;;;2.08;;
26588;SDS011;14235;48.532;8.722;2023-04-07T09:17:03;4.80;;;2.78;;
26588;SDS011;14235;48.532;8.722;2023-04-07T09:19:28;4.03;;;2.90;;
26588;SDS011;14235;48.532;8.722;2023-04-07T09:21:55;3.15;;;2.50;;
26588;SDS011;14235;48.532;8.722;2023-04-07T09:24:21;3.50;;;2.53;;
26588;SDS011;14235;48.532;8.722;2023-04-07T09:26:47;2.78;;;2.55;;
26588;SDS011;14235;48.532;8.722;2023-04-07T09:29:17;3.10;;;2.80;;
26588;SDS011;14235;48.532;8.722;2023-04-07T09:36:52;6.13;;;3.75;;
26588;SDS011;14235;48.532;8.722;2023-04-07T09:39:18;7.35;;;3.38;;
26588;SDS011;14235;48.532;8.722;2023-04-07T09:41:44;4.97;;;3.70;;
26588;SDS011;14235;48.532;8.722;2023-04-07T09:44:10;3.90;;;3.47;;
26588;SDS011;14235;48.532;8.722;2023-04-07T09:46:36;3.95;;;3.55;;
26588;SDS011;14235;48.532;8.722;2023-04-07T09:49:16;4.70;;;3.65;;
26588;SDS011;14235;48.532;8.722;2023-04-07T09:52:02;4.03;;;3.63;;
26588;SDS011;14235;48.532;8.722;2023-04-07T09:54:38;4.25;;;3.58;;
26588;SDS011;14235;48.532;8.722;2023-04-07T09:57:05;4.80;;;3.63;;
26588;SDS011;14235;48.532;8.722;2023-04-07T09:59:37;6.15;;;3.45;;
26588;SDS011;14235;48.532;8.722;2023-04-07T10:02:06;8.32;;;5.95;;
26588;SDS011;14235;48.532;8.722;2023-04-07T10:04:32;6.45;;;5.47;;
26588;SDS011;14235;48.532;8.722;2023-04-07T10:06:58;6.32;;;4.93;;
26588;SDS011;14235;48.532;8.722;2023-04-07T10:09:28;4.78;;;4.30;;
26588;SDS011;14235;48.532;8.722;2023-04-07T10:11:54;6.45;;;4.20;;
26588;SDS011;14235;48.532;8.722;2023-04-07T10:14:24;7.05;;;4.30;;
26588;SDS011;14235;48.532;8.722;2023-04-07T10:16:51;5.90;;;3.97;;
26588;SDS011;14235;48.532;8.722;2023-04-07T10:19:18;3.80;;;3.42;;
26588;SDS011;14235;48.532;8.722;2023-04-07T10:21:43;3.70;;;3.40;;
26588;SDS011;14235;48.532;8.722;2023-04-07T10:26:44;4.00;;;3.40;;
26588;SDS011;14235;48.532;8.722;2023-04-07T10:29:15;4.85;;;3.30;;
26588;SDS011;14235;48.532;8.722;2023-04-07T10:31:42;5.80;;;3.40;;
26588;SDS011;14235;48.532;8.722;2023-04-07T10:34:08;3.40;;;3.10;;
26588;SDS011;14235;48.532;8.722;2023-04-07T10:36:33;4.05;;;3.22;;
26588;SDS011;14235;48.532;8.722;2023-04-07T10:41:34;4.63;;;3.30;;
26588;SDS011;14235;48.532;8.722;2023-04-07T10:44:01;6.70;;;5.25;;
26588;SDS011;14235;48.532;8.722;2023-04-07T10:49:12;5.78;;;3.75;;
26588;SDS011;14235;48.532;8.722;2023-04-07T10:51:40;4.50;;;4.10;;
26588;SDS011;14235;48.532;8.722;2023-04-07T10:54:15;4.20;;;2.17;;
26588;SDS011;14235;48.532;8.722;2023-04-07T10:59:27;1.92;;;1.83;;
26588;SDS011;14235;48.532;8.722;2023-04-07T11:04:36;3.50;;;2.00;;
26588;SDS011;14235;48.532;8.722;2023-04-07T11:07:03;2.60;;;2.35;;
26588;SDS011;14235;48.532;8.722;2023-04-07T11:09:28;2.00;;;1.90;;
26588;SDS011;14235;48.532;8.722;2023-04-07T11:11:54;3.35;;;1.95;;
26588;SDS011;14235;48.532;8.722;2023-04-07T11:14:24;4.53;;;2.15;;
26588;SDS011;14235;48.532;8.722;2023-04-07T11:16:52;2.85;;;2.17;;
26588;SDS011;14235;48.532;8.722;2023-04-07T11:19:18;2.63;;;2.08;;
26588;SDS011;14235;48.532;8.722;2023-04-07T11:21:44;2.15;;;1.98;;
26588;SDS011;14235;48.532;8.722;2023-04-07T11:24:10;2.28;;;2.05;;
26588;SDS011;14235;48.532;8.722;2023-04-07T11:26:55;3.65;;;1.90;;
26588;SDS011;14235;48.532;8.722;2023-04-07T11:29:26;3.08;;;2.13;;
26588;SDS011;14235;48.532;8.722;2023-04-07T11:31:56;4.25;;;2.22;;
26588;SDS011;14235;48.532;8.722;2023-04-07T11:34:28;3.60;;;2.20;;
26588;SDS011;14235;48.532;8.722;2023-04-07T11:36:55;2.10;;;1.90;;
26588;SDS011;14235;48.532;8.722;2023-04-07T11:39:24;3.45;;;2.22;;
26588;SDS011;14235;48.532;8.722;2023-04-07T11:41:59;3.50;;;1.95;;
26588;SDS011;14235;48.532;8.722;2023-04-07T11:44:25;3.47;;;1.75;;
26588;SDS011;14235;48.532;8.722;2023-04-07T11:46:51;3.85;;;1.75;;
26588;SDS011;14235;48.532;8.722;2023-04-07T11:49:21;2.20;;;1.98;;
26588;SDS011;14235;48.532;8.722;2023-04-07T11:51:59;3.05;;;1.80;;
26588;SDS011;14235;48.532;8.722;2023-04-07T11:54:40;3.03;;;1.73;;
26588;SDS011;14235;48.532;8.722;2023-04-07T11:57:06;3.10;;;1.90;;
26588;SDS011;14235;48.532;8.722;2023-04-07T11:59:34;2.90;;;2.20;;
26588;SDS011;14235;48.532;8.722;2023-04-07T12:01:59;2.33;;;1.60;;
26588;SDS011;14235;48.532;8.722;2023-04-07T12:04:25;3.80;;;2.33;;
26588;SDS011;14235;48.532;8.722;2023-04-07T12:06:51;1.80;;;1.70;;
26588;SDS011;14235;48.532;8.722;2023-04-07T12:09:32;2.05;;;1.85;;
26588;SDS011;14235;48.532;8.722;2023-04-07T12:12:05;3.05;;;2.13;;
26588;SDS011;14235;48.532;8.722;2023-04-07T12:14:31;3.45;;;1.85;;
26588;SDS011;14235;48.532;8.722;2023-04-07T12:16:58;2.28;;;1.80;;
26588;SDS011;14235;48.532;8.722;2023-04-07T12:19:26;1.92;;;1.77;;
26588;SDS011;14235;48.532;8.722;2023-04-07T12:21:52;1.67;;;1.58;;
26588;SDS011;14235;48.532;8.722;2023-04-07T12:24:18;1.73;;;1.63;;
26588;SDS011;14235;48.532;8.722;2023-04-07T12:26:44;1.77;;;1.67;;
26588;SDS011;14235;48.532;8.722;2023-04-07T12:29:09;2.47;;;1.38;;
26588;SDS011;14235;48.532;8.722;2023-04-07T12:31:35;2.47;;;1.60;;
26588;SDS011;14235;48.532;8.722;2023-04-07T12:34:01;2.83;;;1.70;;
26588;SDS011;14235;48.532;8.722;2023-04-07T12:36:27;1.48;;;1.38;;
26588;SDS011;14235;48.532;8.722;2023-04-07T12:38:53;1.60;;;1.50;;
26588;SDS011;14235;48.532;8.722;2023-04-07T12:41:20;1.50;;;1.40;;
26588;SDS011;14235;48.532;8.722;2023-04-07T12:43:45;1.50;;;1.40;;
26588;SDS011;14235;48.532;8.722;2023-04-07T12:46:11;1.30;;;1.20;;
26588;SDS011;14235;48.532;8.722;2023-04-07T12:48:36;1.67;;;1.58;;
26588;SDS011;14235;48.532;8.722;2023-04-07T12:51:02;1.70;;;1.60;;
26588;SDS011;14235;48.532;8.722;2023-04-07T12:53:28;2.42;;;1.65;;
26588;SDS011;14235;48.532;8.722;2023-04-07T12:55:54;2.63;;;1.35;;
26588;SDS011;14235;48.532;8.722;2023-04-07T12:58:20;1.70;;;1.60;;
26588;SDS011;14235;48.532;8.722;2023-04-07T13:00:46;1.70;;;1.45;;
26588;SDS011;14235;48.532;8.722;2023-04-07T13:03:12;1.20;;;1.08;;
26588;SDS011;14235;48.532;8.722;2023-04-07T13:05:38;1.27;;;1.17;;
26588;SDS011;14235;48.532;8.722;2023-04-07T13:08:03;1.42;;;1.30;;
26588;SDS011;14235;48.532;8.722;2023-04-07T13:10:29;2.65;;;1.70;;
26588;SDS011;14235;48.532;8.722;2023-04-07T13:12:55;1.10;;;1.10;;
26588;SDS011;14235;48.532;8.722;2023-04-07T13:15:21;2.40;;;1.75;;
26588;SDS011;14235;48.532;8.722;2023-04-07T13:17:47;1.88;;;1.77;;
26588;SDS011;14235;48.532;8.722;2023-04-07T13:20:12;2.08;;;1.75;;
26588;SDS011;14235;48.532;8.722;2023-04-07T13:22:38;2.50;;;2.08;;
26588;SDS011;14235;48.532;8.722;2023-04-07T13:25:04;2.03;;;1.75;;
26588;SDS011;14235;48.532;8.722;2023-04-07T13:27:30;2.42;;;2.22;;
26588;SDS011;14235;48.532;8.722;2023-04-07T13:29:55;2.50;;;2.30;;
26588;SDS011;14235;48.532;8.722;2023-04-07T13:32:21;2.75;;;1.98;;
26588;SDS011;14235;48.532;8.722;2023-04-07T13:34:47;3.05;;;2.30;;
26588;SDS011;14235;48.532;8.722;2023-04-07T13:37:13;2.35;;;2.15;;
26588;SDS011;14235;48.532;8.722;2023-04-07T13:39:38;2.03;;;1.92;;
26588;SDS011;14235;48.532;8.722;2023-04-07T13:42:04;2.35;;;2.15;;
26588;SDS011;14235;48.532;8.722;2023-04-07T13:44:30;3.20;;;2.17;;
26588;SDS011;14235;48.532;8.722;2023-04-07T13:46:57;2.88;;;2.58;;
26588;SDS011;14235;48.532;8.722;2023-04-07T13:49:22;2.30;;;2.10;;
26588;SDS011;14235;48.532;8.722;2023-04-07T13:51:48;3.15;;;2.53;;
26588;SDS011;14235;48.532;8.722;2023-04-07T13:54:15;3.22;;;2.30;;
26588;SDS011;14235;48.532;8.722;2023-04-07T13:56:41;2.45;;;2.20;;
26588;SDS011;14235;48.532;8.722;2023-04-07T13:59:06;2.55;;;2.28;;
26588;SDS011;14235;48.532;8.722;2023-04-07T14:01:32;3.42;;;2.30;;
26588;SDS011;14235;48.532;8.722;2023-04-07T14:03:59;3.42;;;2.05;;
26588;SDS011;14235;48.532;8.722;2023-04-07T14:06:26;2.00;;;1.80;;
26588;SDS011;14235;48.532;8.722;2023-04-07T14:08:52;2.95;;;2.25;;
26588;SDS011;14235;48.532;8.722;2023-04-07T14:11:18;3.00;;;2.05;;
26588;SDS011;14235;48.532;8.722;2023-04-07T14:13:46;3.08;;;2.00;;
26588;SDS011;14235;48.532;8.722;2023-04-07T14:16:12;2.75;;;1.90;;
26588;SDS011;14235;48.532;8.722;2023-04-07T14:18:38;2.28;;;1.73;;
26588;SDS011;14235;48.532;8.722;2023-04-07T14:21:04;3.28;;;2.10;;
26588;SDS011;14235;48.532;8.722;2023-04-07T14:23:30;4.40;;;3.65;;
26588;SDS011;14235;48.532;8.722;2023-04-07T14:25:56;2.33;;;2.13;;
26588;SDS011;14235;48.532;8.722;2023-04-07T14:28:22;2.20;;;2.00;;
26588;SDS011;14235;48.532;8.722;2023-04-07T14:30:48;2.28;;;1.83;;
26588;SDS011;14235;48.532;8.722;2023-04-07T14:33:13;1.92;;;1.83;;
26588;SDS011;14235;48.532;8.722;2023-04-07T14:35:41;1.70;;;1.60;;
26588;SDS011;14235;48.532;8.722;2023-04-07T14:38:07;2.58;;;1.80;;
26588;SDS011;14235;48.532;8.722;2023-04-07T14:40:33;1.65;;;1.55;;
26588;SDS011;14235;48.532;8.722;2023-04-07T14:43:03;2.75;;;1.95;;
26588;SDS011;14235;48.532;8.722;2023-04-07T14:45:31;6.10;;;1.65;;
26588;SDS011;14235;48.532;8.722;2023-04-07T14:47:56;2.05;;;1.52;;
26588;SDS011;14235;48.532;8.722;2023-04-07T14:50:22;2.42;;;1.80;;
26588;SDS011;14235;48.532;8.722;2023-04-07T14:52:48;3.30;;;1.75;;
26588;SDS011;14235;48.532;8.722;2023-04-07T14:55:14;2.20;;;1.70;;
26588;SDS011;14235;48.532;8.722;2023-04-07T14:57:40;2.58;;;2.10;;
26588;SDS011;14235;48.532;8.722;2023-04-07T15:00:07;2.30;;;2.10;;
26588;SDS011;14235;48.532;8.722;2023-04-07T15:02:33;2.08;;;1.67;;
26588;SDS011;14235;48.532;8.722;2023-04-07T15:05:00;2.25;;;2.13;;
26588;SDS011;14235;48.532;8.722;2023-04-07T15:07:26;2.13;;;1.80;;
26588;SDS011;14235;48.532;8.722;2023-04-07T15:09:52;1.98;;;1.80;;
26588;SDS011;14235;48.532;8.722;2023-04-07T15:12:18;2.95;;;1.70;;